sensor_id;sensor_type;location;lat;lon;timestamp;temperature;humidity
13389;DHT22;6764;53.250;10.410;2023-06-14T00:00:39;19.10;90.10
13389;DHT22;6764;53.250;10.410;2023-06-14T00:03:06;19.10;90.10
13389;DHT22;6764;53.250;10.410;2023-06-14T00:05:33;19.00;90.30
13389;DHT22;6764;53.250;10.410;2023-06-14T00:08:04;19.10;90.30
13389;DHT22;6764;53.250;10.410;2023-06-14T00:10:36;19.00;90.50
13389;DHT22;6764;53.250;10.410;2023-06-14T00:13:03;19.00;90.70
13389;DHT22;6764;53.250;10.410;2023-06-14T00:15:31;19.00;90.70
13389;DHT22;6764;53.250;10.410;2023-06-14T00:17:57;18.90;90.80
13389;DHT22;6764;53.250;10.410;2023-06-14T00:20:26;18.90;91.20
13389;DHT22;6764;53.250;10.410;2023-06-14T00:22:53;18.90;91.30
13389;DHT22;6764;53.250;10.410;2023-06-14T00:25:21;18.90;91.30
13389;DHT22;6764;53.250;10.410;2023-06-14T00:27:47;18.90;91.50
13389;DHT22;6764;53.250;10.410;2023-06-14T00:30:13;18.80;91.50
13389;DHT22;6764;53.250;10.410;2023-06-14T00:32:39;18.80;91.90
13389;DHT22;6764;53.250;10.410;2023-06-14T00:35:04;18.70;92.10
13389;DHT22;6764;53.250;10.410;2023-06-14T00:37:30;18.50;92.60
13389;DHT22;6764;53.250;10.410;2023-06-14T00:39:56;18.50;93.00
13389;DHT22;6764;53.250;10.410;2023-06-14T00:42:28;18.50;93.10
13389;DHT22;6764;53.250;10.410;2023-06-14T00:44:54;18.40;93.20
13389;DHT22;6764;53.250;10.410;2023-06-14T00:47:20;18.30;93.50
13389;DHT22;6764;53.250;10.410;2023-06-14T00:49:47;18.30;94.00
13389;DHT22;6764;53.250;10.410;2023-06-14T00:52:14;18.30;94.20
13389;DHT22;6764;53.250;10.410;2023-06-14T00:54:41;18.20;94.20
13389;DHT22;6764;53.250;10.410;2023-06-14T00:57:07;18.20;94.50
13389;DHT22;6764;53.250;10.410;2023-06-14T00:59:36;18.20;94.50
13389;DHT22;6764;53.250;10.410;2023-06-14T01:02:04;18.30;94.80
13389;DHT22;6764;53.250;10.410;2023-06-14T01:04:30;18.20;94.70
13389;DHT22;6764;53.250;10.410;2023-06-14T01:09:41;18.30;94.90
13389;DHT22;6764;53.250;10.410;2023-06-14T01:12:35;18.20;95.00
13389;DHT22;6764;53.250;10.410;2023-06-14T01:15:02;18.20;95.20
13389;DHT22;6764;53.250;10.410;2023-06-14T01:17:29;18.10;95.60
13389;DHT22;6764;53.250;10.410;2023-06-14T01:19:58;18.10;96.00
13389;DHT22;6764;53.250;10.410;2023-06-14T01:22:28;17.90;96.30
13389;DHT22;6764;53.250;10.410;2023-06-14T01:24:54;17.90;96.60
13389;DHT22;6764;53.250;10.410;2023-06-14T01:27:23;17.80;97.10
13389;DHT22;6764;53.250;10.410;2023-06-14T01:29:51;17.80;97.10
13389;DHT22;6764;53.250;10.410;2023-06-14T01:32:18;17.80;97.30
13389;DHT22;6764;53.250;10.410;2023-06-14T01:34:44;17.90;97.30
13389;DHT22;6764;53.250;10.410;2023-06-14T01:37:11;17.90;97.40
13389;DHT22;6764;53.250;10.410;2023-06-14T01:39:37;17.80;97.90
13389;DHT22;6764;53.250;10.410;2023-06-14T01:42:04;17.80;97.80
13389;DHT22;6764;53.250;10.410;2023-06-14T01:44:30;17.70;98.10
13389;DHT22;6764;53.250;10.410;2023-06-14T01:46:57;17.70;98.30
13389;DHT22;6764;53.250;10.410;2023-06-14T01:49:23;17.80;98.20
13389;DHT22;6764;53.250;10.410;2023-06-14T01:51:48;17.80;98.50
13389;DHT22;6764;53.250;10.410;2023-06-14T01:54:14;17.80;98.60
13389;DHT22;6764;53.250;10.410;2023-06-14T01:56:39;17.70;99.10
13389;DHT22;6764;53.250;10.410;2023-06-14T01:59:05;17.60;99.10
13389;DHT22;6764;53.250;10.410;2023-06-14T02:01:30;17.70;99.30
13389;DHT22;6764;53.250;10.410;2023-06-14T02:03:56;17.60;99.60
13389;DHT22;6764;53.250;10.410;2023-06-14T02:06:22;17.70;99.60
13389;DHT22;6764;53.250;10.410;2023-06-14T02:08:48;17.70;99.80
13389;DHT22;6764;53.250;10.410;2023-06-14T02:11:14;17.60;99.90
13389;DHT22;6764;53.250;10.410;2023-06-14T02:13:40;17.60;99.90
13389;DHT22;6764;53.250;10.410;2023-06-14T02:16:06;17.70;99.90
13389;DHT22;6764;53.250;10.410;2023-06-14T02:18:32;17.60;99.90
13389;DHT22;6764;53.250;10.410;2023-06-14T02:20:57;17.50;99.90
13389;DHT22;6764;53.250;10.410;2023-06-14T02:23:23;17.30;99.90
13389;DHT22;6764;53.250;10.410;2023-06-14T02:25:49;17.40;99.90
13389;DHT22;6764;53.250;10.410;2023-06-14T02:28:14;17.30;99.90
13389;DHT22;6764;53.250;10.410;2023-06-14T02:30:40;17.40;99.90
13389;DHT22;6764;53.250;10.410;2023-06-14T02:33:06;17.50;99.90
13389;DHT22;6764;53.250;10.410;2023-06-14T02:35:31;17.50;99.90
13389;DHT22;6764;53.250;10.410;2023-06-14T02:37:57;17.30;99.90
13389;DHT22;6764;53.250;10.410;2023-06-14T02:40:23;17.30;99.90
13389;DHT22;6764;53.250;10.410;2023-06-14T02:42:49;17.30;99.90
13389;DHT22;6764;53.250;10.410;2023-06-14T02:45:14;17.30;99.90
13389;DHT22;6764;53.250;10.410;2023-06-14T02:47:40;17.40;99.90
13389;DHT22;6764;53.250;10.410;2023-06-14T02:50:06;17.30;99.90
13389;DHT22;6764;53.250;10.410;2023-06-14T02:52:33;17.30;99.90
13389;DHT22;6764;53.250;10.410;2023-06-14T02:54:58;17.20;99.90
13389;DHT22;6764;53.250;10.410;2023-06-14T02:57:24;17.30;99.90
13389;DHT22;6764;53.250;10.410;2023-06-14T02:59:50;17.10;99.90
13389;DHT22;6764;53.250;10.410;2023-06-14T03:02:15;17.20;99.90
13389;DHT22;6764;53.250;10.410;2023-06-14T03:04:41;17.30;99.90
13389;DHT22;6764;53.250;10.410;2023-06-14T03:07:10;17.30;99.90
13389;DHT22;6764;53.250;10.410;2023-06-14T03:09:39;17.20;99.90
13389;DHT22;6764;53.250;10.410;2023-06-14T03:12:05;17.10;99.90
13389;DHT22;6764;53.250;10.410;2023-06-14T03:14:32;17.00;99.90
13389;DHT22;6764;53.250;10.410;2023-06-14T03:16:58;17.10;99.90
13389;DHT22;6764;53.250;10.410;2023-06-14T03:19:24;17.20;99.90
13389;DHT22;6764;53.250;10.410;2023-06-14T03:21:51;17.20;99.90
13389;DHT22;6764;53.250;10.410;2023-06-14T03:24:17;17.00;99.90
13389;DHT22;6764;53.250;10.410;2023-06-14T03:26:42;17.00;99.90
13389;DHT22;6764;53.250;10.410;2023-06-14T03:29:08;17.00;99.90
13389;DHT22;6764;53.250;10.410;2023-06-14T03:31:42;16.80;99.90
13389;DHT22;6764;53.250;10.410;2023-06-14T03:34:21;16.80;99.90
13389;DHT22;6764;53.250;10.410;2023-06-14T03:36:47;16.70;99.90
13389;DHT22;6764;53.250;10.410;2023-06-14T03:39:12;16.70;99.90
13389;DHT22;6764;53.250;10.410;2023-06-14T03:41:38;16.70;99.90
13389;DHT22;6764;53.250;10.410;2023-06-14T03:44:03;16.70;99.90
13389;DHT22;6764;53.250;10.410;2023-06-14T03:46:29;16.60;99.90
13389;DHT22;6764;53.250;10.410;2023-06-14T03:48:55;16.60;99.90
13389;DHT22;6764;53.250;10.410;2023-06-14T03:51:21;16.70;99.90
13389;DHT22;6764;53.250;10.410;2023-06-14T03:53:48;16.70;99.90
13389;DHT22;6764;53.250;10.410;2023-06-14T03:56:13;16.70;99.90
13389;DHT22;6764;53.250;10.410;2023-06-14T03:58:39;16.50;99.90
13389;DHT22;6764;53.250;10.410;2023-06-14T04:01:04;16.70;99.90
13389;DHT22;6764;53.250;10.410;2023-06-14T04:03:32;16.70;99.90
13389;DHT22;6764;53.250;10.410;2023-06-14T04:05:58;16.70;99.90
13389;DHT22;6764;53.250;10.410;2023-06-14T04:08:25;16.80;99.90
13389;DHT22;6764;53.250;10.410;2023-06-14T04:10:51;16.90;99.90
13389;DHT22;6764;53.250;10.410;2023-06-14T04:13:16;17.10;99.90
13389;DHT22;6764;53.250;10.410;2023-06-14T04:15:42;17.10;99.90
13389;DHT22;6764;53.250;10.410;2023-06-14T04:18:09;17.20;99.90
13389;DHT22;6764;53.250;10.410;2023-06-14T04:20:35;17.20;99.90
13389;DHT22;6764;53.250;10.410;2023-06-14T04:23:15;17.10;99.90
13389;DHT22;6764;53.250;10.410;2023-06-14T04:25:43;17.20;99.90
13389;DHT22;6764;53.250;10.410;2023-06-14T04:28:11;17.10;99.90
13389;DHT22;6764;53.250;10.410;2023-06-14T04:30:37;17.00;99.90
13389;DHT22;6764;53.250;10.410;2023-06-14T04:33:04;17.00;99.90
13389;DHT22;6764;53.250;10.410;2023-06-14T04:35:31;16.90;99.90
13389;DHT22;6764;53.250;10.410;2023-06-14T04:37:58;16.80;99.90
13389;DHT22;6764;53.250;10.410;2023-06-14T04:40:24;16.80;99.90
13389;DHT22;6764;53.250;10.410;2023-06-14T04:42:50;16.80;99.90
13389;DHT22;6764;53.250;10.410;2023-06-14T04:45:16;16.80;99.90
13389;DHT22;6764;53.250;10.410;2023-06-14T04:47:42;16.80;99.90
13389;DHT22;6764;53.250;10.410;2023-06-14T04:50:09;16.90;99.90
13389;DHT22;6764;53.250;10.410;2023-06-14T04:52:36;16.90;99.90
13389;DHT22;6764;53.250;10.410;2023-06-14T04:55:03;16.90;99.90
13389;DHT22;6764;53.250;10.410;2023-06-14T04:57:28;16.90;99.90
13389;DHT22;6764;53.250;10.410;2023-06-14T04:59:54;17.00;99.90
13389;DHT22;6764;53.250;10.410;2023-06-14T05:02:24;17.10;99.90
13389;DHT22;6764;53.250;10.410;2023-06-14T05:04:50;17.00;99.90
13389;DHT22;6764;53.250;10.410;2023-06-14T05:07:16;17.10;99.90
13389;DHT22;6764;53.250;10.410;2023-06-14T05:09:42;17.10;99.90
13389;DHT22;6764;53.250;10.410;2023-06-14T05:12:08;17.20;99.90
13389;DHT22;6764;53.250;10.410;2023-06-14T05:14:34;17.30;99.90
13389;DHT22;6764;53.250;10.410;2023-06-14T05:17:00;17.30;99.90
13389;DHT22;6764;53.250;10.410;2023-06-14T05:19:25;17.40;99.90
13389;DHT22;6764;53.250;10.410;2023-06-14T05:21:52;17.60;99.90
13389;DHT22;6764;53.250;10.410;2023-06-14T05:24:18;17.60;99.90
13389;DHT22;6764;53.250;10.410;2023-06-14T05:26:44;17.80;99.90
13389;DHT22;6764;53.250;10.410;2023-06-14T05:29:09;18.00;99.90
13389;DHT22;6764;53.250;10.410;2023-06-14T05:31:35;18.10;99.90
13389;DHT22;6764;53.250;10.410;2023-06-14T05:34:01;18.10;99.90
13389;DHT22;6764;53.250;10.410;2023-06-14T05:36:26;18.20;99.90
13389;DHT22;6764;53.250;10.410;2023-06-14T05:38:53;18.30;99.90
13389;DHT22;6764;53.250;10.410;2023-06-14T05:41:25;18.40;99.90
13389;DHT22;6764;53.250;10.410;2023-06-14T05:43:52;18.30;99.90
13389;DHT22;6764;53.250;10.410;2023-06-14T05:46:18;18.50;99.90
13389;DHT22;6764;53.250;10.410;2023-06-14T05:48:48;18.70;99.90
13389;DHT22;6764;53.250;10.410;2023-06-14T05:51:14;18.70;99.90
13389;DHT22;6764;53.250;10.410;2023-06-14T05:53:40;18.80;99.90
13389;DHT22;6764;53.250;10.410;2023-06-14T05:56:05;18.80;99.90
13389;DHT22;6764;53.250;10.410;2023-06-14T05:58:31;18.80;99.90
13389;DHT22;6764;53.250;10.410;2023-06-14T06:00:57;18.90;99.90
13389;DHT22;6764;53.250;10.410;2023-06-14T06:03:23;19.00;99.90
13389;DHT22;6764;53.250;10.410;2023-06-14T06:05:48;19.00;99.90
13389;DHT22;6764;53.250;10.410;2023-06-14T06:08:14;19.20;99.90
13389;DHT22;6764;53.250;10.410;2023-06-14T06:10:42;19.20;99.90
13389;DHT22;6764;53.250;10.410;2023-06-14T06:13:07;19.30;99.90
13389;DHT22;6764;53.250;10.410;2023-06-14T06:15:33;19.50;99.90
13389;DHT22;6764;53.250;10.410;2023-06-14T06:17:58;19.60;99.90
13389;DHT22;6764;53.250;10.410;2023-06-14T06:20:24;19.70;99.90
13389;DHT22;6764;53.250;10.410;2023-06-14T06:22:53;19.80;99.90
13389;DHT22;6764;53.250;10.410;2023-06-14T06:25:19;19.80;99.90
13389;DHT22;6764;53.250;10.410;2023-06-14T06:27:45;19.90;99.90
13389;DHT22;6764;53.250;10.410;2023-06-14T06:30:11;20.20;99.90
13389;DHT22;6764;53.250;10.410;2023-06-14T06:32:37;21.30;98.70
13389;DHT22;6764;53.250;10.410;2023-06-14T06:35:03;22.70;94.70
13389;DHT22;6764;53.250;10.410;2023-06-14T06:37:31;24.70;90.30
13389;DHT22;6764;53.250;10.410;2023-06-14T06:39:57;26.40;79.20
13389;DHT22;6764;53.250;10.410;2023-06-14T06:42:22;28.10;73.50
13389;DHT22;6764;53.250;10.410;2023-06-14T06:44:48;29.90;67.30
13389;DHT22;6764;53.250;10.410;2023-06-14T06:47:14;30.80;61.90
13389;DHT22;6764;53.250;10.410;2023-06-14T06:49:39;31.50;59.10
13389;DHT22;6764;53.250;10.410;2023-06-14T06:52:06;32.30;57.50
13389;DHT22;6764;53.250;10.410;2023-06-14T06:54:32;33.40;56.00
13389;DHT22;6764;53.250;10.410;2023-06-14T06:56:58;34.00;54.50
13389;DHT22;6764;53.250;10.410;2023-06-14T06:59:24;34.60;53.00
13389;DHT22;6764;53.250;10.410;2023-06-14T07:01:50;35.30;52.00
13389;DHT22;6764;53.250;10.410;2023-06-14T07:04:16;35.60;50.80
13389;DHT22;6764;53.250;10.410;2023-06-14T07:06:42;35.90;50.20
13389;DHT22;6764;53.250;10.410;2023-06-14T07:09:08;36.20;49.00
13389;DHT22;6764;53.250;10.410;2023-06-14T07:11:38;35.50;48.70
13389;DHT22;6764;53.250;10.410;2023-06-14T07:14:05;36.00;48.00
13389;DHT22;6764;53.250;10.410;2023-06-14T07:16:30;36.30;47.10
13389;DHT22;6764;53.250;10.410;2023-06-14T07:18:56;36.50;47.20
13389;DHT22;6764;53.250;10.410;2023-06-14T07:21:22;37.20;46.40
13389;DHT22;6764;53.250;10.410;2023-06-14T07:23:47;37.20;45.70
13389;DHT22;6764;53.250;10.410;2023-06-14T07:26:13;37.70;45.10
13389;DHT22;6764;53.250;10.410;2023-06-14T07:28:39;38.10;44.00
13389;DHT22;6764;53.250;10.410;2023-06-14T07:31:04;38.10;43.40
13389;DHT22;6764;53.250;10.410;2023-06-14T07:33:30;38.10;43.20
13389;DHT22;6764;53.250;10.410;2023-06-14T07:35:56;38.30;43.10
13389;DHT22;6764;53.250;10.410;2023-06-14T07:38:21;38.00;43.00
13389;DHT22;6764;53.250;10.410;2023-06-14T07:40:47;38.00;43.20
13389;DHT22;6764;53.250;10.410;2023-06-14T07:43:13;37.70;42.80
13389;DHT22;6764;53.250;10.410;2023-06-14T07:45:38;37.20;42.70
13389;DHT22;6764;53.250;10.410;2023-06-14T07:48:04;37.40;42.50
13389;DHT22;6764;53.250;10.410;2023-06-14T07:50:30;37.60;42.70
13389;DHT22;6764;53.250;10.410;2023-06-14T07:52:56;37.70;42.70
13389;DHT22;6764;53.250;10.410;2023-06-14T07:55:22;38.00;41.80
13389;DHT22;6764;53.250;10.410;2023-06-14T07:57:47;37.80;41.60
13389;DHT22;6764;53.250;10.410;2023-06-14T08:00:13;38.50;41.40
13389;DHT22;6764;53.250;10.410;2023-06-14T08:02:44;38.50;41.10
13389;DHT22;6764;53.250;10.410;2023-06-14T08:05:13;38.60;40.50
13389;DHT22;6764;53.250;10.410;2023-06-14T08:07:39;37.70;41.70
13389;DHT22;6764;53.250;10.410;2023-06-14T08:10:06;37.00;43.00
13389;DHT22;6764;53.250;10.410;2023-06-14T08:12:33;37.30;41.80
13389;DHT22;6764;53.250;10.410;2023-06-14T08:14:59;38.50;41.30
13389;DHT22;6764;53.250;10.410;2023-06-14T08:17:24;39.10;39.90
13389;DHT22;6764;53.250;10.410;2023-06-14T08:19:50;37.70;40.80
13389;DHT22;6764;53.250;10.410;2023-06-14T08:22:16;38.10;40.80
13389;DHT22;6764;53.250;10.410;2023-06-14T08:24:43;38.60;40.50
13389;DHT22;6764;53.250;10.410;2023-06-14T08:27:11;38.70;40.30
13389;DHT22;6764;53.250;10.410;2023-06-14T08:29:36;39.00;40.20
13389;DHT22;6764;53.250;10.410;2023-06-14T08:32:04;38.60;40.20
13389;DHT22;6764;53.250;10.410;2023-06-14T08:34:30;38.80;39.80
13389;DHT22;6764;53.250;10.410;2023-06-14T08:36:55;38.40;40.40
13389;DHT22;6764;53.250;10.410;2023-06-14T08:39:21;39.40;40.50
13389;DHT22;6764;53.250;10.410;2023-06-14T08:41:47;40.30;39.90
13389;DHT22;6764;53.250;10.410;2023-06-14T08:44:17;40.80;38.90
13389;DHT22;6764;53.250;10.410;2023-06-14T08:46:43;41.20;37.50
13389;DHT22;6764;53.250;10.410;2023-06-14T08:49:12;40.70;37.50
13389;DHT22;6764;53.250;10.410;2023-06-14T08:51:38;40.00;38.60
13389;DHT22;6764;53.250;10.410;2023-06-14T08:54:06;39.20;38.80
13389;DHT22;6764;53.250;10.410;2023-06-14T08:56:32;39.40;39.20
13389;DHT22;6764;53.250;10.410;2023-06-14T08:59:00;38.80;39.20
13389;DHT22;6764;53.250;10.410;2023-06-14T09:01:33;38.60;39.20
13389;DHT22;6764;53.250;10.410;2023-06-14T09:04:00;39.30;38.90
13389;DHT22;6764;53.250;10.410;2023-06-14T09:06:25;39.10;39.30
13389;DHT22;6764;53.250;10.410;2023-06-14T09:08:54;39.20;38.90
13389;DHT22;6764;53.250;10.410;2023-06-14T09:11:22;38.40;40.00
13389;DHT22;6764;53.250;10.410;2023-06-14T09:13:49;38.60;40.20
13389;DHT22;6764;53.250;10.410;2023-06-14T09:16:15;38.50;39.70
13389;DHT22;6764;53.250;10.410;2023-06-14T09:18:45;38.90;39.60
13389;DHT22;6764;53.250;10.410;2023-06-14T09:21:15;39.30;38.40
13389;DHT22;6764;53.250;10.410;2023-06-14T09:23:45;38.70;38.90
13389;DHT22;6764;53.250;10.410;2023-06-14T09:26:18;39.10;38.70
13389;DHT22;6764;53.250;10.410;2023-06-14T09:28:53;39.00;38.00
13389;DHT22;6764;53.250;10.410;2023-06-14T09:31:19;39.30;38.40
13389;DHT22;6764;53.250;10.410;2023-06-14T09:33:47;38.80;38.80
13389;DHT22;6764;53.250;10.410;2023-06-14T09:36:18;38.30;39.20
13389;DHT22;6764;53.250;10.410;2023-06-14T09:44:04;34.10;43.70
13389;DHT22;6764;53.250;10.410;2023-06-14T09:46:30;34.10;43.80
13389;DHT22;6764;53.250;10.410;2023-06-14T09:49:00;34.10;43.80
13389;DHT22;6764;53.250;10.410;2023-06-14T09:51:26;33.80;44.10
13389;DHT22;6764;53.250;10.410;2023-06-14T09:53:52;33.10;45.00
13389;DHT22;6764;53.250;10.410;2023-06-14T09:56:29;33.60;44.70
13389;DHT22;6764;53.250;10.410;2023-06-14T09:58:59;34.60;43.30
13389;DHT22;6764;53.250;10.410;2023-06-14T10:01:27;35.40;42.30
13389;DHT22;6764;53.250;10.410;2023-06-14T10:04:03;35.70;41.40
13389;DHT22;6764;53.250;10.410;2023-06-14T10:06:29;36.50;40.80
13389;DHT22;6764;53.250;10.410;2023-06-14T10:08:59;36.80;40.30
13389;DHT22;6764;53.250;10.410;2023-06-14T10:11:26;36.40;40.30
13389;DHT22;6764;53.250;10.410;2023-06-14T10:13:53;35.90;40.40
13389;DHT22;6764;53.250;10.410;2023-06-14T10:16:30;35.50;41.80
13389;DHT22;6764;53.250;10.410;2023-06-14T10:19:18;35.20;41.30
13389;DHT22;6764;53.250;10.410;2023-06-14T10:22:14;34.70;42.20
13389;DHT22;6764;53.250;10.410;2023-06-14T10:24:43;34.20;42.70
13389;DHT22;6764;53.250;10.410;2023-06-14T10:27:10;34.10;42.40
13389;DHT22;6764;53.250;10.410;2023-06-14T10:32:20;33.60;43.90
13389;DHT22;6764;53.250;10.410;2023-06-14T10:34:45;33.80;43.30
13389;DHT22;6764;53.250;10.410;2023-06-14T10:37:17;33.70;42.90
13389;DHT22;6764;53.250;10.410;2023-06-14T10:39:44;32.80;44.10
13389;DHT22;6764;53.250;10.410;2023-06-14T10:42:12;32.70;44.30
13389;DHT22;6764;53.250;10.410;2023-06-14T10:44:38;32.90;43.80
13389;DHT22;6764;53.250;10.410;2023-06-14T10:47:10;32.80;43.70
13389;DHT22;6764;53.250;10.410;2023-06-14T10:49:44;32.90;43.00
13389;DHT22;6764;53.250;10.410;2023-06-14T10:52:16;32.20;43.10
13389;DHT22;6764;53.250;10.410;2023-06-14T10:57:30;31.30;45.50
13389;DHT22;6764;53.250;10.410;2023-06-14T11:00:03;31.60;45.80
13389;DHT22;6764;53.250;10.410;2023-06-14T11:03:33;32.00;45.20
13389;DHT22;6764;53.250;10.410;2023-06-14T11:06:14;31.30;45.20
13389;DHT22;6764;53.250;10.410;2023-06-14T11:09:26;30.90;46.80
13389;DHT22;6764;53.250;10.410;2023-06-14T11:11:58;31.10;46.20
13389;DHT22;6764;53.250;10.410;2023-06-14T11:14:24;30.50;46.80
13389;DHT22;6764;53.250;10.410;2023-06-14T11:16:50;30.30;47.80
13389;DHT22;6764;53.250;10.410;2023-06-14T11:19:16;30.10;47.90
13389;DHT22;6764;53.250;10.410;2023-06-14T11:21:47;29.90;47.80
13389;DHT22;6764;53.250;10.410;2023-06-14T11:24:13;29.60;48.10
13389;DHT22;6764;53.250;10.410;2023-06-14T11:26:40;29.50;48.10
13389;DHT22;6764;53.250;10.410;2023-06-14T11:29:06;30.00;47.50
13389;DHT22;6764;53.250;10.410;2023-06-14T11:31:31;30.30;47.10
13389;DHT22;6764;53.250;10.410;2023-06-14T11:33:58;30.30;46.90
13389;DHT22;6764;53.250;10.410;2023-06-14T11:36:33;29.90;47.40
13389;DHT22;6764;53.250;10.410;2023-06-14T11:39:04;29.80;47.50
13389;DHT22;6764;53.250;10.410;2023-06-14T11:41:42;29.30;48.20
13389;DHT22;6764;53.250;10.410;2023-06-14T11:44:08;29.20;48.50
13389;DHT22;6764;53.250;10.410;2023-06-14T11:46:35;29.30;48.50
13389;DHT22;6764;53.250;10.410;2023-06-14T11:49:01;29.60;48.00
13389;DHT22;6764;53.250;10.410;2023-06-14T11:51:33;29.30;48.60
13389;DHT22;6764;53.250;10.410;2023-06-14T11:54:00;29.10;49.10
13389;DHT22;6764;53.250;10.410;2023-06-14T11:56:29;28.90;49.10
13389;DHT22;6764;53.250;10.410;2023-06-14T11:58:55;28.90;49.10
13389;DHT22;6764;53.250;10.410;2023-06-14T12:01:22;28.70;48.70
13389;DHT22;6764;53.250;10.410;2023-06-14T12:03:52;28.30;49.30
13389;DHT22;6764;53.250;10.410;2023-06-14T12:06:29;28.10;49.80
13389;DHT22;6764;53.250;10.410;2023-06-14T12:09:00;28.00;49.80
13389;DHT22;6764;53.250;10.410;2023-06-14T12:11:34;28.20;49.90
13389;DHT22;6764;53.250;10.410;2023-06-14T12:14:02;28.40;49.30
13389;DHT22;6764;53.250;10.410;2023-06-14T12:16:35;28.60;49.20
13389;DHT22;6764;53.250;10.410;2023-06-14T12:19:15;28.60;48.90
13389;DHT22;6764;53.250;10.410;2023-06-14T12:21:42;28.80;48.50
13389;DHT22;6764;53.250;10.410;2023-06-14T12:24:08;28.50;48.60
13389;DHT22;6764;53.250;10.410;2023-06-14T12:26:38;28.30;48.80
13389;DHT22;6764;53.250;10.410;2023-06-14T12:29:05;28.30;48.60
13389;DHT22;6764;53.250;10.410;2023-06-14T12:31:31;28.40;48.80
13389;DHT22;6764;53.250;10.410;2023-06-14T12:33:56;28.60;48.50
13389;DHT22;6764;53.250;10.410;2023-06-14T12:36:22;28.60;47.80
13389;DHT22;6764;53.250;10.410;2023-06-14T12:38:48;28.80;47.60
13389;DHT22;6764;53.250;10.410;2023-06-14T12:41:13;28.60;47.60
13389;DHT22;6764;53.250;10.410;2023-06-14T12:43:40;28.60;47.90
13389;DHT22;6764;53.250;10.410;2023-06-14T12:46:05;28.40;48.30
13389;DHT22;6764;53.250;10.410;2023-06-14T12:48:31;28.50;47.70
13389;DHT22;6764;53.250;10.410;2023-06-14T12:50:57;28.80;47.60
13389;DHT22;6764;53.250;10.410;2023-06-14T12:53:23;29.00;47.40
13389;DHT22;6764;53.250;10.410;2023-06-14T12:55:49;29.20;47.10
13389;DHT22;6764;53.250;10.410;2023-06-14T12:58:15;29.00;47.30
13389;DHT22;6764;53.250;10.410;2023-06-14T13:00:42;28.90;48.40
13389;DHT22;6764;53.250;10.410;2023-06-14T13:03:09;28.90;47.70
13389;DHT22;6764;53.250;10.410;2023-06-14T13:05:35;29.00;47.50
13389;DHT22;6764;53.250;10.410;2023-06-14T13:08:01;29.10;47.60
13389;DHT22;6764;53.250;10.410;2023-06-14T13:10:26;29.00;46.80
13389;DHT22;6764;53.250;10.410;2023-06-14T13:12:53;29.00;46.50
13389;DHT22;6764;53.250;10.410;2023-06-14T13:15:19;29.00;46.50
13389;DHT22;6764;53.250;10.410;2023-06-14T13:17:45;29.20;46.40
13389;DHT22;6764;53.250;10.410;2023-06-14T13:20:14;29.00;45.30
13389;DHT22;6764;53.250;10.410;2023-06-14T13:22:40;29.30;45.00
13389;DHT22;6764;53.250;10.410;2023-06-14T13:25:06;29.40;45.20
13389;DHT22;6764;53.250;10.410;2023-06-14T13:27:32;29.40;45.70
13389;DHT22;6764;53.250;10.410;2023-06-14T13:29:58;29.40;45.80
13389;DHT22;6764;53.250;10.410;2023-06-14T13:32:24;29.20;45.30
13389;DHT22;6764;53.250;10.410;2023-06-14T13:34:49;29.00;45.90
13389;DHT22;6764;53.250;10.410;2023-06-14T13:37:15;28.80;46.00
13389;DHT22;6764;53.250;10.410;2023-06-14T13:39:41;28.80;45.70
13389;DHT22;6764;53.250;10.410;2023-06-14T13:42:07;28.80;46.20
13389;DHT22;6764;53.250;10.410;2023-06-14T13:44:32;29.00;46.50
13389;DHT22;6764;53.250;10.410;2023-06-14T13:46:59;29.00;45.80
13389;DHT22;6764;53.250;10.410;2023-06-14T13:49:25;29.00;45.60
13389;DHT22;6764;53.250;10.410;2023-06-14T13:51:50;29.10;45.90
13389;DHT22;6764;53.250;10.410;2023-06-14T13:54:19;29.00;45.10
13389;DHT22;6764;53.250;10.410;2023-06-14T13:56:46;29.10;44.20
13389;DHT22;6764;53.250;10.410;2023-06-14T13:59:12;29.00;44.40
13389;DHT22;6764;53.250;10.410;2023-06-14T14:01:37;29.00;44.80
13389;DHT22;6764;53.250;10.410;2023-06-14T14:04:04;28.90;45.60
13389;DHT22;6764;53.250;10.410;2023-06-14T14:06:30;28.90;45.30
13389;DHT22;6764;53.250;10.410;2023-06-14T14:08:57;29.00;45.90
13389;DHT22;6764;53.250;10.410;2023-06-14T14:11:22;28.80;46.70
13389;DHT22;6764;53.250;10.410;2023-06-14T14:13:48;28.80;47.20
13389;DHT22;6764;53.250;10.410;2023-06-14T14:16:14;28.60;47.50
13389;DHT22;6764;53.250;10.410;2023-06-14T14:18:42;28.30;48.90
13389;DHT22;6764;53.250;10.410;2023-06-14T14:21:08;28.10;48.80
13389;DHT22;6764;53.250;10.410;2023-06-14T14:23:35;28.00;49.30
13389;DHT22;6764;53.250;10.410;2023-06-14T14:26:00;27.90;50.10
13389;DHT22;6764;53.250;10.410;2023-06-14T14:28:29;28.00;50.20
13389;DHT22;6764;53.250;10.410;2023-06-14T14:30:54;28.20;50.20
13389;DHT22;6764;53.250;10.410;2023-06-14T14:33:20;28.30;50.30
13389;DHT22;6764;53.250;10.410;2023-06-14T14:35:46;28.30;50.90
13389;DHT22;6764;53.250;10.410;2023-06-14T14:38:13;28.30;51.10
13389;DHT22;6764;53.250;10.410;2023-06-14T14:40:39;28.30;51.00
13389;DHT22;6764;53.250;10.410;2023-06-14T14:43:05;28.30;51.50
13389;DHT22;6764;53.250;10.410;2023-06-14T14:45:31;28.30;51.40
13389;DHT22;6764;53.250;10.410;2023-06-14T14:47:57;28.40;51.00
13389;DHT22;6764;53.250;10.410;2023-06-14T14:50:22;28.40;50.70
13389;DHT22;6764;53.250;10.410;2023-06-14T14:52:48;28.20;51.00
13389;DHT22;6764;53.250;10.410;2023-06-14T14:55:14;28.20;51.00
13389;DHT22;6764;53.250;10.410;2023-06-14T14:57:39;28.20;50.50
13389;DHT22;6764;53.250;10.410;2023-06-14T15:00:06;28.30;50.00
13389;DHT22;6764;53.250;10.410;2023-06-14T15:02:31;28.40;49.70
13389;DHT22;6764;53.250;10.410;2023-06-14T15:04:57;28.60;49.30
13389;DHT22;6764;53.250;10.410;2023-06-14T15:07:30;28.60;47.40
13389;DHT22;6764;53.250;10.410;2023-06-14T15:09:57;28.40;48.00
13389;DHT22;6764;53.250;10.410;2023-06-14T15:12:22;28.60;47.20
13389;DHT22;6764;53.250;10.410;2023-06-14T15:14:51;28.60;47.40
13389;DHT22;6764;53.250;10.410;2023-06-14T15:17:18;28.40;50.30
13389;DHT22;6764;53.250;10.410;2023-06-14T15:19:45;28.20;51.50
13389;DHT22;6764;53.250;10.410;2023-06-14T15:22:10;28.00;52.40
13389;DHT22;6764;53.250;10.410;2023-06-14T15:24:36;27.70;53.10
13389;DHT22;6764;53.250;10.410;2023-06-14T15:27:01;27.70;53.20
13389;DHT22;6764;53.250;10.410;2023-06-14T15:29:28;27.70;53.40
13389;DHT22;6764;53.250;10.410;2023-06-14T15:31:53;27.60;53.40
13389;DHT22;6764;53.250;10.410;2023-06-14T15:34:20;27.60;53.30
13389;DHT22;6764;53.250;10.410;2023-06-14T15:36:46;27.30;53.30
13389;DHT22;6764;53.250;10.410;2023-06-14T15:39:12;27.40;53.70
13389;DHT22;6764;53.250;10.410;2023-06-14T15:41:37;27.40;53.30
13389;DHT22;6764;53.250;10.410;2023-06-14T15:44:03;27.40;53.60